createdAt,value
2019-06-08T00:02:09.906Z,23.13
2019-06-08T00:04:37.733Z,23.07
2019-06-08T00:07:05.545Z,23.08
2019-06-08T00:09:33.307Z,23.07
2019-06-08T00:12:01.122Z,23.06
2019-06-08T00:14:30.338Z,23.04
2019-06-08T00:16:58.198Z,23.01
2019-06-08T00:19:26.103Z,23.01
2019-06-08T00:21:53.966Z,22.99
2019-06-08T00:24:21.940Z,22.95
2019-06-08T00:26:49.843Z,22.97
2019-06-08T00:29:18.372Z,22.96
2019-06-08T00:31:46.331Z,22.95
2019-06-08T00:34:14.476Z,22.94
2019-06-08T00:36:42.501Z,22.93
2019-06-08T00:39:10.502Z,22.91
2019-06-08T00:41:38.054Z,22.89
2019-06-08T00:44:05.993Z,22.89
2019-06-08T00:46:33.727Z,22.88
2019-06-08T00:49:01.605Z,22.88
2019-06-08T00:51:29.818Z,22.86
2019-06-08T00:53:57.664Z,22.86
2019-06-08T00:56:25.976Z,22.85
2019-06-08T00:58:53.995Z,22.84
2019-06-08T01:01:24.238Z,22.82
2019-06-08T01:03:51.577Z,22.82
2019-06-08T01:06:20.846Z,22.79
2019-06-08T01:08:48.854Z,22.78
2019-06-08T01:11:16.720Z,22.76
2019-06-08T01:13:44.341Z,22.75
2019-06-08T01:16:12.126Z,22.76
2019-06-08T01:18:39.909Z,22.76
2019-06-08T01:21:07.778Z,22.77
2019-06-08T01:23:35.619Z,22.76
2019-06-08T01:26:03.406Z,22.75
2019-06-08T01:28:31.228Z,22.72
2019-06-08T01:30:58.796Z,22.73
2019-06-08T01:33:26.714Z,22.70
2019-06-08T01:35:54.877Z,22.69
2019-06-08T01:38:22.960Z,22.69
2019-06-08T01:40:50.908Z,22.69
2019-06-08T01:43:18.775Z,22.70
2019-06-08T01:45:46.438Z,22.70
2019-06-08T01:48:19.850Z,22.71
2019-06-08T01:50:43.415Z,22.70
2019-06-08T01:53:10.911Z,22.69
2019-06-08T01:55:38.484Z,22.69
2019-06-08T01:58:06.362Z,22.68
2019-06-08T02:00:39.486Z,22.65
2019-06-08T02:03:04.069Z,22.63
2019-06-08T02:05:32.556Z,22.63
2019-06-08T02:08:00.357Z,22.64
2019-06-08T02:10:28.785Z,22.62
2019-06-08T02:12:56.688Z,22.61
2019-06-08T02:15:25.176Z,22.60
2019-06-08T02:17:52.824Z,22.60
2019-06-08T02:20:20.393Z,22.60
2019-06-08T02:22:47.901Z,22.60
2019-06-08T02:25:15.469Z,22.59
2019-06-08T02:27:43.191Z,22.57
2019-06-08T02:30:10.940Z,22.55
2019-06-08T02:32:38.483Z,22.56
2019-06-08T02:35:06.513Z,22.53
2019-06-08T02:37:35.368Z,22.55
2019-06-08T02:40:03.826Z,22.53
2019-06-08T02:42:33.071Z,22.50
2019-06-08T02:45:00.823Z,22.49
2019-06-08T02:47:29.009Z,22.50
2019-06-08T02:49:57.817Z,22.47
2019-06-08T02:52:25.345Z,22.46
2019-06-08T02:54:52.924Z,22.49
2019-06-08T02:57:20.945Z,22.46
2019-06-08T02:59:48.464Z,22.48
2019-06-08T03:02:16.483Z,22.48
2019-06-08T03:04:44.052Z,22.44
2019-06-08T03:07:11.616Z,22.43
2019-06-08T03:09:40.872Z,22.43
2019-06-08T03:12:08.825Z,22.42
2019-06-08T03:14:37.679Z,22.41
2019-06-08T03:17:05.810Z,22.41
2019-06-08T03:19:33.466Z,22.40
2019-06-08T03:22:01.038Z,22.38
2019-06-08T03:24:28.566Z,22.39
2019-06-08T03:26:56.112Z,22.40
2019-06-08T03:29:23.657Z,22.39
2019-06-08T03:31:56.177Z,22.40
2019-06-08T03:34:20.734Z,22.40
2019-06-08T03:36:55.726Z,22.39
2019-06-08T03:39:17.667Z,22.39
2019-06-08T03:41:45.389Z,22.37
2019-06-08T03:44:12.933Z,22.37
2019-06-08T03:46:41.012Z,22.37
2019-06-08T03:49:09.299Z,22.38
2019-06-08T03:51:40.234Z,22.38
2019-06-08T03:54:06.218Z,22.36
2019-06-08T03:56:35.470Z,22.39
2019-06-08T03:59:03.297Z,22.35
2019-06-08T04:01:30.782Z,22.35
2019-06-08T04:04:00.052Z,22.35
2019-06-08T04:06:28.077Z,22.37
2019-06-08T04:08:55.888Z,22.37
2019-06-08T04:11:23.650Z,22.36
2019-06-08T04:13:51.620Z,22.35
2019-06-08T04:16:20.976Z,22.34
2019-06-08T04:18:50.260Z,22.34
2019-06-08T04:21:18.089Z,22.36
2019-06-08T04:23:47.096Z,22.34
2019-06-08T04:26:15.253Z,22.35
2019-06-08T04:28:44.730Z,22.33
2019-06-08T04:31:12.922Z,22.32
2019-06-08T04:33:42.033Z,22.31
2019-06-08T04:36:09.987Z,22.32
2019-06-08T04:38:39.007Z,22.32
2019-06-08T04:41:07.051Z,22.33
2019-06-08T04:43:34.812Z,22.35
2019-06-08T04:46:02.632Z,22.34
2019-06-08T04:48:30.418Z,22.35
2019-06-08T04:50:58.219Z,22.33
2019-06-08T04:53:25.979Z,22.33
2019-06-08T04:55:53.738Z,22.34
2019-06-08T04:58:21.698Z,22.34
2019-06-08T05:00:50.760Z,22.34
2019-06-08T05:03:18.873Z,22.37
2019-06-08T05:05:47.612Z,22.37
2019-06-08T05:08:16.054Z,22.40
2019-06-08T05:10:45.173Z,22.41
2019-06-08T05:13:13.209Z,22.40
2019-06-08T05:15:41.416Z,22.42
2019-06-08T05:18:09.396Z,22.44
2019-06-08T05:20:39.238Z,22.44
2019-06-08T05:23:06.716Z,22.46
2019-06-08T05:25:34.242Z,22.44
2019-06-08T05:28:02.043Z,22.43
2019-06-08T05:30:29.905Z,22.43
2019-06-08T05:32:57.577Z,22.43
2019-06-08T05:35:25.380Z,22.42
2019-06-08T05:37:53.301Z,22.41
2019-06-08T05:40:21.072Z,22.40
2019-06-08T05:42:49.965Z,22.42
2019-06-08T05:45:17.718Z,22.44
2019-06-08T05:47:45.843Z,22.45
2019-06-08T05:50:13.997Z,22.46
2019-06-08T05:52:42.033Z,22.48
2019-06-08T05:55:09.896Z,22.49
2019-06-08T05:57:37.664Z,22.48
2019-06-08T06:00:09.223Z,22.48
2019-06-08T06:02:35.652Z,22.49
2019-06-08T06:05:03.672Z,22.47
2019-06-08T06:07:31.141Z,22.46
2019-06-08T06:09:58.658Z,22.44
2019-06-08T06:12:26.163Z,22.46
2019-06-08T06:14:53.655Z,22.44
2019-06-08T06:17:21.158Z,22.46
2019-06-08T06:19:49.239Z,22.47
2019-06-08T06:22:16.858Z,22.48
2019-06-08T06:24:45.505Z,22.50
2019-06-08T06:27:13.281Z,22.52
2019-06-08T06:29:41.415Z,22.55
2019-06-08T06:32:09.222Z,22.58
2019-06-08T06:34:36.936Z,22.59
2019-06-08T06:37:04.857Z,22.59
2019-06-08T06:39:32.355Z,22.62
2019-06-08T06:41:59.844Z,22.63
2019-06-08T06:44:27.374Z,22.64
2019-06-08T06:46:54.876Z,22.65
2019-06-08T06:49:22.423Z,22.65
2019-06-08T06:51:50.534Z,22.66
2019-06-08T06:54:18.128Z,22.68
2019-06-08T06:56:45.644Z,22.69
2019-06-08T06:59:13.137Z,22.70
2019-06-08T07:01:40.660Z,22.69
2019-06-08T07:04:08.234Z,22.69
2019-06-08T07:06:35.722Z,22.71
2019-06-08T07:09:04.710Z,22.72
2019-06-08T07:11:32.202Z,22.72
2019-06-08T07:13:59.698Z,22.72
2019-06-08T07:16:27.224Z,22.73
2019-06-08T07:18:54.791Z,22.75
2019-06-08T07:21:22.360Z,22.82
2019-06-08T07:23:51.173Z,22.88
2019-06-08T07:26:19.091Z,22.90
2019-06-08T07:28:48.052Z,22.94
2019-06-08T07:31:15.967Z,22.95
2019-06-08T07:33:43.723Z,22.93
2019-06-08T07:36:11.749Z,22.89
2019-06-08T07:38:39.561Z,22.87
2019-06-08T07:41:07.222Z,22.90
2019-06-08T07:43:35.091Z,22.90
2019-06-08T07:46:02.853Z,22.91
2019-06-08T07:48:30.411Z,22.92
2019-06-08T07:50:58.441Z,22.94
2019-06-08T07:53:26.092Z,22.94
2019-06-08T07:55:54.163Z,22.91
2019-06-08T07:58:21.698Z,22.89
2019-06-08T08:00:50.444Z,22.86
2019-06-08T08:03:18.698Z,22.86
2019-06-08T08:05:46.223Z,22.88
2019-06-08T08:08:13.758Z,22.87
2019-06-08T08:10:41.244Z,22.89
2019-06-08T08:13:08.765Z,22.90
2019-06-08T08:15:36.277Z,22.88
2019-06-08T08:18:03.807Z,22.87
2019-06-08T08:20:31.286Z,22.85
2019-06-08T08:23:05.578Z,22.83
2019-06-08T08:25:28.291Z,22.84
2019-06-08T08:27:57.800Z,22.86
2019-06-08T08:30:25.379Z,22.85
2019-06-08T08:32:54.587Z,22.80
2019-06-08T08:35:22.586Z,22.80
2019-06-08T08:37:55.136Z,22.79
2019-06-08T08:40:20.103Z,22.77
2019-06-08T08:42:48.275Z,22.76
2019-06-08T08:45:18.386Z,22.75
2019-06-08T08:47:48.339Z,22.73
2019-06-08T08:50:18.235Z,22.72
2019-06-08T08:52:47.564Z,22.71
2019-06-08T08:55:20.250Z,22.70
2019-06-08T08:57:45.099Z,22.68
2019-06-08T09:00:12.886Z,22.66
2019-06-08T09:02:40.468Z,22.63
2019-06-08T09:05:08.753Z,22.63
2019-06-08T09:07:38.550Z,22.62
2019-06-08T09:10:08.529Z,22.61
2019-06-08T09:12:37.698Z,22.60
2019-06-08T09:15:08.300Z,22.60
2019-06-08T09:17:35.150Z,22.59
2019-06-08T09:20:03.834Z,22.59
2019-06-08T09:22:31.753Z,22.59
2019-06-08T09:25:03.183Z,22.57
2019-06-08T09:27:29.128Z,22.55
2019-06-08T09:29:59.701Z,22.55
2019-06-08T09:32:28.197Z,22.54
2019-06-08T09:34:59.179Z,22.54
2019-06-08T09:37:25.186Z,22.55
2019-06-08T09:39:53.948Z,22.56
2019-06-08T09:42:21.907Z,22.56
2019-06-08T09:44:49.431Z,22.57
2019-06-08T09:47:18.178Z,22.55
2019-06-08T09:49:47.889Z,22.55
2019-06-08T09:52:18.198Z,22.58
2019-06-08T09:54:45.070Z,22.60
2019-06-08T09:57:12.835Z,22.65
2019-06-08T09:59:40.493Z,22.68
2019-06-08T10:02:12.458Z,22.71
2019-06-08T10:04:38.708Z,22.73
2019-06-08T10:07:08.862Z,22.76
2019-06-08T10:09:38.106Z,22.76
2019-06-08T10:12:09.617Z,22.73
2019-06-08T10:14:38.009Z,22.68
2019-06-08T10:17:06.625Z,22.63
2019-06-08T10:19:35.407Z,22.60
2019-06-08T10:22:03.062Z,22.58
2019-06-08T10:24:30.735Z,22.55
2019-06-08T10:26:59.386Z,22.53
2019-06-08T10:29:27.379Z,22.52
2019-06-08T10:31:55.230Z,22.54
2019-06-08T10:34:23.030Z,22.59
2019-06-08T10:36:50.521Z,22.65
2019-06-08T10:39:18.019Z,22.68
2019-06-08T10:41:51.260Z,22.71
2019-06-08T10:44:15.353Z,22.73
2019-06-08T10:46:42.960Z,22.76
2019-06-08T10:49:14.227Z,22.79
2019-06-08T10:51:40.990Z,22.82
2019-06-08T10:54:10.959Z,22.82
2019-06-08T10:56:38.640Z,22.85
2019-06-08T10:59:09.951Z,22.83
2019-06-08T11:01:38.406Z,22.80
2019-06-08T11:04:06.964Z,22.77
2019-06-08T11:06:34.745Z,22.75
2019-06-08T11:09:07.177Z,22.70
2019-06-08T11:11:31.743Z,22.65
2019-06-08T11:14:00.956Z,22.64
2019-06-08T11:16:28.832Z,22.60
2019-06-08T11:18:59.066Z,22.57
2019-06-08T11:21:25.791Z,22.56
2019-06-08T11:24:07.558Z,22.56
2019-06-08T11:26:24.588Z,22.54
2019-06-08T11:28:53.029Z,22.54
2019-06-08T11:31:20.626Z,22.54
2019-06-08T11:33:49.057Z,22.53
2019-06-08T11:36:18.929Z,22.50
2019-06-08T11:38:47.783Z,22.52
2019-06-08T11:41:17.902Z,22.51
2019-06-08T11:43:45.437Z,22.50
2019-06-08T11:46:12.937Z,22.47
2019-06-08T11:48:41.521Z,22.44
2019-06-08T11:51:12.603Z,22.43
2019-06-08T11:53:38.723Z,22.42
2019-06-08T11:56:09.044Z,22.41
2019-06-08T11:58:38.531Z,22.41
2019-06-08T12:01:11.609Z,22.43
2019-06-08T12:03:38.759Z,22.41
2019-06-08T12:06:09.453Z,22.39
2019-06-08T12:08:37.984Z,22.37
2019-06-08T12:11:09.743Z,22.37
2019-06-08T12:13:35.123Z,22.37
2019-06-08T12:16:03.116Z,22.38
2019-06-08T12:18:30.760Z,22.40
2019-06-08T12:21:01.308Z,22.41
2019-06-08T12:23:27.725Z,22.42
2019-06-08T12:25:56.099Z,22.43
2019-06-08T12:28:23.659Z,22.44
2019-06-08T12:30:51.195Z,22.42
2019-06-08T12:33:20.874Z,22.41
2019-06-08T12:35:48.092Z,22.41
2019-06-08T12:38:16.519Z,22.39
2019-06-08T12:40:44.981Z,22.39
2019-06-08T12:43:13.228Z,22.37
2019-06-08T12:45:41.862Z,22.36
2019-06-08T12:48:14.616Z,22.34
2019-06-08T12:50:38.803Z,22.32
2019-06-08T12:53:11.884Z,22.34
2019-06-08T12:55:37.721Z,22.34
2019-06-08T12:58:05.194Z,22.35
2019-06-08T13:00:32.689Z,22.35
2019-06-08T13:03:00.208Z,22.33
2019-06-08T13:05:27.725Z,22.32
2019-06-08T13:07:55.269Z,22.30
2019-06-08T13:10:24.207Z,22.30
2019-06-08T13:12:52.097Z,22.33
2019-06-08T13:15:21.910Z,22.39
2019-06-08T13:17:50.605Z,22.44
2019-06-08T13:20:22.099Z,22.43
2019-06-08T13:22:48.348Z,22.41
2019-06-08T13:25:31.983Z,22.39
2019-06-08T13:27:45.325Z,22.38
2019-06-08T13:30:17.206Z,22.36
2019-06-08T13:32:42.359Z,22.35
2019-06-08T13:35:10.550Z,22.36
2019-06-08T13:37:39.054Z,22.41
2019-06-08T13:40:08.162Z,22.52
2019-06-08T13:42:38.174Z,22.65
2019-06-08T13:45:07.515Z,22.75
2019-06-08T13:47:38.242Z,22.94
2019-06-08T13:50:05.980Z,23.00
2019-06-08T13:52:33.476Z,23.01
2019-06-08T13:55:00.981Z,22.97
2019-06-08T13:57:28.764Z,22.93
2019-06-08T13:59:57.821Z,22.93
2019-06-08T14:02:29.094Z,22.91
2019-06-08T14:04:55.274Z,22.90
2019-06-08T14:07:27.396Z,22.93
2019-06-08T14:09:53.003Z,23.04
2019-06-08T14:12:23.222Z,23.15
2019-06-08T14:14:50.580Z,23.18
2019-06-08T14:17:20.897Z,23.20
2019-06-08T14:19:48.354Z,23.22
2019-06-08T14:22:21.386Z,23.23
2019-06-08T14:24:47.897Z,23.23
2019-06-08T14:27:15.647Z,23.20
2019-06-08T14:29:43.307Z,23.34
2019-06-08T14:32:11.171Z,23.62
2019-06-08T14:34:38.956Z,24.26
2019-06-08T14:37:08.611Z,25.08
2019-06-08T14:39:36.616Z,25.60
2019-06-08T14:42:04.428Z,26.05
2019-06-08T14:44:34.007Z,26.36
2019-06-08T14:47:13.225Z,26.54
2019-06-08T14:49:42.595Z,26.19
2019-06-08T14:52:10.849Z,26.11
2019-06-08T14:54:38.872Z,26.43
2019-06-08T14:57:07.853Z,26.50
2019-06-08T14:59:35.933Z,26.58
2019-06-08T15:02:03.841Z,25.91
2019-06-08T15:04:36.026Z,25.14
2019-06-08T15:07:01.267Z,24.72
2019-06-08T15:09:29.874Z,24.50
2019-06-08T15:11:58.355Z,24.40
2019-06-08T15:14:29.262Z,24.49
2019-06-08T15:16:55.799Z,24.30
2019-06-08T15:19:24.416Z,24.26
2019-06-08T15:21:52.129Z,24.16
2019-06-08T15:24:20.650Z,24.03
2019-06-08T15:26:49.042Z,23.94
2019-06-08T15:29:16.769Z,23.87
2019-06-08T15:31:44.263Z,23.80
2019-06-08T15:34:11.765Z,23.75
2019-06-08T15:36:39.260Z,23.70
2019-06-08T15:39:07.841Z,23.67
2019-06-08T15:41:35.499Z,23.62
2019-06-08T15:44:02.993Z,23.55
2019-06-08T15:46:30.537Z,23.47
2019-06-08T15:51:26.206Z,23.34
2019-06-08T15:53:54.504Z,23.28
2019-06-08T15:56:37.497Z,23.23
2019-06-08T15:58:51.739Z,23.19
2019-06-08T16:01:19.222Z,23.16
2019-06-08T16:03:46.777Z,23.15
2019-06-08T16:06:14.262Z,23.16
2019-06-08T16:08:41.790Z,23.17
2019-06-08T16:11:09.276Z,23.13
2019-06-08T16:13:36.829Z,23.05
2019-06-08T16:16:04.571Z,23.02
2019-06-08T16:18:32.129Z,23.01
2019-06-08T16:20:59.998Z,23.02
2019-06-08T16:23:27.760Z,23.04
2019-06-08T16:25:55.326Z,23.03
2019-06-08T16:28:22.852Z,23.20
2019-06-08T16:30:50.341Z,23.49
2019-06-08T16:33:17.864Z,23.55
2019-06-08T16:35:45.376Z,23.50
2019-06-08T16:38:12.969Z,23.46
2019-06-08T16:40:40.553Z,23.41
2019-06-08T16:45:35.259Z,23.37
2019-06-08T16:48:02.856Z,23.48
2019-06-08T16:50:30.464Z,23.74
2019-06-08T16:52:58.083Z,23.83
2019-06-08T16:55:25.580Z,23.68
2019-06-08T16:57:53.087Z,23.63
2019-06-08T17:00:39.916Z,23.63
2019-06-08T17:02:50.151Z,23.57
2019-06-08T17:05:17.710Z,23.43
2019-06-08T17:07:45.491Z,23.37
2019-06-08T17:10:13.477Z,23.35
2019-06-08T17:12:41.216Z,23.34
2019-06-08T17:15:08.696Z,23.27
2019-06-08T17:17:36.684Z,23.20
2019-06-08T17:20:05.107Z,23.11
2019-06-08T17:22:32.769Z,23.02
2019-06-08T17:25:00.314Z,22.95
2019-06-08T17:27:27.912Z,22.94
2019-06-08T17:29:55.484Z,22.86
2019-06-08T17:32:22.988Z,22.82
2019-06-08T17:34:50.785Z,22.80
2019-06-08T17:37:18.280Z,22.78
2019-06-08T17:39:45.825Z,22.78
2019-06-08T17:42:13.674Z,22.76
2019-06-08T17:44:42.481Z,22.74
2019-06-08T17:47:10.141Z,22.68
2019-06-08T17:49:38.671Z,22.62
2019-06-08T17:52:06.273Z,22.58
2019-06-08T17:54:34.676Z,22.51
2019-06-08T17:57:02.493Z,22.46
2019-06-08T17:59:30.017Z,22.41
2019-06-08T18:01:57.577Z,22.37
2019-06-08T18:04:25.080Z,22.34
2019-06-08T18:06:52.702Z,22.31
2019-06-08T18:09:20.197Z,22.27
2019-06-08T18:11:48.062Z,22.23
2019-06-08T18:14:18.024Z,22.20
2019-06-08T18:16:47.822Z,22.20
2019-06-08T18:19:24.660Z,22.21
2019-06-08T18:21:52.270Z,22.21
2019-06-08T18:24:19.743Z,22.20
2019-06-08T18:26:47.528Z,22.17
2019-06-08T18:29:15.156Z,22.14
2019-06-08T18:31:43.970Z,22.12
2019-06-08T18:34:11.981Z,22.08
2019-06-08T18:36:40.702Z,22.08
2019-06-08T18:39:08.878Z,22.21
2019-06-08T18:41:39.029Z,22.25
2019-06-08T18:44:08.378Z,22.35
2019-06-08T18:46:37.575Z,22.38
2019-06-08T18:49:08.045Z,22.37
2019-06-08T18:51:37.764Z,22.36
2019-06-08T18:54:12.915Z,22.50
2019-06-08T18:56:36.305Z,22.65
2019-06-08T18:59:03.893Z,22.74
2019-06-08T19:01:31.469Z,22.80
2019-06-08T19:03:59.012Z,22.83
2019-06-08T19:06:27.875Z,22.83
2019-06-08T19:08:57.782Z,22.83
2019-06-08T19:11:24.842Z,22.78
2019-06-08T19:13:54.212Z,22.72
2019-06-08T19:16:21.904Z,22.65
2019-06-08T19:18:52.709Z,22.60
2019-06-08T19:21:18.861Z,22.56
2019-06-08T19:23:49.202Z,22.53
2019-06-08T19:26:17.221Z,22.51
2019-06-08T19:28:47.796Z,22.48
2019-06-08T19:31:14.444Z,22.43
2019-06-08T19:33:41.932Z,22.39
2019-06-08T19:36:09.445Z,22.33
2019-06-08T19:38:38.423Z,22.29
2019-06-08T19:41:08.152Z,22.23
2019-06-08T19:43:38.524Z,22.18
2019-06-08T19:46:07.209Z,22.13
2019-06-08T19:48:34.582Z,22.08
2019-06-08T19:51:02.080Z,22.04
2019-06-08T19:53:29.645Z,21.99
2019-06-08T19:55:57.238Z,21.97
2019-06-08T19:58:24.868Z,21.94
2019-06-08T20:00:54.585Z,21.90
2019-06-08T20:03:21.814Z,21.88
2019-06-08T20:05:51.637Z,21.85
2019-06-08T20:08:18.803Z,21.81
2019-06-08T20:10:48.030Z,21.78
2019-06-08T20:13:15.754Z,21.75
2019-06-08T20:15:47.328Z,21.74
2019-06-08T20:18:12.834Z,21.70
2019-06-08T20:20:41.956Z,21.68
2019-06-08T20:23:09.859Z,21.65
2019-06-08T20:25:38.152Z,21.63
2019-06-08T20:28:07.941Z,21.61
2019-06-08T20:30:35.372Z,21.58
2019-06-08T20:33:02.916Z,21.56
2019-06-08T20:35:30.444Z,21.53
2019-06-08T20:37:58.060Z,21.51
2019-06-08T20:40:27.951Z,21.49
2019-06-08T20:42:55.054Z,21.47
2019-06-08T20:45:22.605Z,21.44
2019-06-08T20:47:52.021Z,21.42
2019-06-08T20:50:19.528Z,21.42
2019-06-08T20:52:49.299Z,21.40
2019-06-08T20:55:17.568Z,21.37
2019-06-08T20:57:45.229Z,21.35
2019-06-08T21:00:12.961Z,21.33
2019-06-08T21:02:40.459Z,21.31
2019-06-08T21:05:08.022Z,21.31
2019-06-08T21:07:35.620Z,21.29
2019-06-08T21:10:03.139Z,21.28
2019-06-08T21:12:30.707Z,21.27
2019-06-08T21:14:58.205Z,21.25
2019-06-08T21:17:27.525Z,21.23
2019-06-08T21:19:57.755Z,21.22
2019-06-08T21:22:24.787Z,21.20
2019-06-08T21:24:53.954Z,21.18
2019-06-08T21:27:21.637Z,21.18
2019-06-08T21:29:59.103Z,21.16
2019-06-08T21:32:21.543Z,21.16
2019-06-08T21:34:50.834Z,21.13
2019-06-08T21:37:18.626Z,21.13
2019-06-08T21:39:50.433Z,21.11
2019-06-08T21:42:15.690Z,21.09
2019-06-08T21:44:43.241Z,21.09
2019-06-08T21:47:10.785Z,21.08
2019-06-08T21:49:38.616Z,21.07
2019-06-08T21:52:07.309Z,21.06
2019-06-08T21:54:37.210Z,21.04
2019-06-08T21:57:06.729Z,21.03
2019-06-08T21:59:33.876Z,21.00
2019-06-08T22:02:03.906Z,21.00
2019-06-08T22:04:30.938Z,20.99
2019-06-08T22:06:59.723Z,20.98
2019-06-08T22:09:28.503Z,20.98
2019-06-08T22:11:59.173Z,20.97
2019-06-08T22:14:27.344Z,20.96
2019-06-08T22:16:55.571Z,20.96
2019-06-08T22:19:24.459Z,20.94
2019-06-08T22:21:52.528Z,20.95
2019-06-08T22:24:21.280Z,20.94
2019-06-08T22:26:48.792Z,20.92
2019-06-08T22:29:18.233Z,20.90
2019-06-08T22:31:47.552Z,20.90
2019-06-08T22:34:17.312Z,20.89
2019-06-08T22:36:44.603Z,20.90
2019-06-08T22:39:12.143Z,20.89
2019-06-08T22:41:39.692Z,20.87
2019-06-08T22:44:08.281Z,20.88
2019-06-08T22:46:37.524Z,20.86
2019-06-08T22:49:07.843Z,20.86
2019-06-08T22:51:34.637Z,20.84
2019-06-08T22:54:02.714Z,20.83
2019-06-08T22:56:31.473Z,20.83
2019-06-08T22:59:04.139Z,20.82
2019-06-08T23:01:30.318Z,20.84
2019-06-08T23:04:00.958Z,20.80
2019-06-08T23:06:28.090Z,20.79
2019-06-08T23:08:59.756Z,20.80
2019-06-08T23:11:25.182Z,20.79
2019-06-08T23:13:52.700Z,20.77
2019-06-08T23:16:20.230Z,20.77
2019-06-08T23:18:47.973Z,20.76
2019-06-08T23:21:17.915Z,20.76
2019-06-08T23:23:47.483Z,20.74
2019-06-08T23:26:14.404Z,20.73
2019-06-08T23:28:41.948Z,20.72
2019-06-08T23:31:21.632Z,20.70
2019-06-08T23:33:38.953Z,20.72
2019-06-08T23:36:40.547Z,20.70
2019-06-08T23:38:37.382Z,20.72
2019-06-08T23:41:05.614Z,20.71
2019-06-08T23:43:33.305Z,20.69
2019-06-08T23:46:02.293Z,20.70
2019-06-08T23:48:29.968Z,20.68
2019-06-08T23:50:57.892Z,20.66
2019-06-08T23:53:27.492Z,20.66
2019-06-08T23:55:55.121Z,20.65
2019-06-08T23:58:22.638Z,20.64
